createdAt,value
2019-04-01T00:00:51.173Z,82.10
2019-04-01T00:01:51.136Z,82.10
2019-04-01T00:02:51.102Z,82.10
2019-04-01T00:03:51.062Z,82.10
2019-04-01T00:04:51.027Z,82.20
2019-04-01T00:05:50.994Z,82.10
2019-04-01T00:06:50.953Z,81.92
2019-04-01T00:07:50.914Z,82.20
2019-04-01T00:08:50.889Z,82.10
2019-04-01T00:09:50.849Z,82.10
2019-04-01T00:10:50.813Z,82.10
2019-04-01T00:11:50.775Z,82.29
2019-04-01T00:12:50.739Z,82.20
2019-04-01T00:13:50.705Z,81.73
2019-04-01T00:14:50.670Z,81.92
2019-04-01T00:15:50.633Z,81.92
2019-04-01T00:16:50.597Z,81.87
2019-04-01T00:17:50.562Z,81.82
2019-04-01T00:19:02.362Z,81.97
2019-04-01T00:19:50.497Z,81.78
2019-04-01T00:20:50.452Z,81.92
2019-04-01T00:21:50.420Z,81.92
2019-04-01T00:22:50.483Z,81.82
2019-04-01T00:23:50.350Z,81.87
2019-04-01T00:24:50.310Z,81.87
2019-04-01T00:25:50.279Z,81.49
2019-04-01T00:26:50.233Z,81.40
2019-04-01T00:27:50.195Z,81.68
2019-04-01T00:28:50.163Z,81.97
2019-04-01T00:29:50.118Z,81.68
2019-04-01T00:30:50.089Z,81.49
2019-04-01T00:31:50.054Z,81.49
2019-04-01T00:32:50.020Z,81.49
2019-04-01T00:33:49.975Z,81.59
2019-04-01T00:34:49.948Z,81.40
2019-04-01T00:35:49.919Z,81.40
2019-04-01T00:36:49.879Z,81.49
2019-04-01T00:37:49.832Z,81.40
2019-04-01T00:38:49.806Z,81.49
2019-04-01T00:39:49.769Z,81.78
2019-04-01T00:40:49.729Z,81.59
2019-04-01T00:41:49.690Z,81.78
2019-04-01T00:42:49.661Z,81.40
2019-04-01T00:43:49.621Z,81.59
2019-04-01T00:44:49.582Z,81.97
2019-04-01T00:45:49.541Z,81.78
2019-04-01T00:46:49.524Z,81.97
2019-04-01T00:47:49.479Z,81.87
2019-04-01T00:48:49.444Z,81.97
2019-04-01T00:49:49.409Z,81.87
2019-04-01T00:50:49.366Z,81.68
2019-04-01T00:51:49.331Z,81.59
2019-04-01T00:52:49.290Z,81.97
2019-04-01T00:53:49.256Z,81.97
2019-04-01T00:54:49.226Z,82.35
2019-04-01T00:55:49.185Z,81.68
2019-04-01T00:56:49.146Z,82.16
2019-04-01T00:57:49.112Z,82.26
2019-04-01T00:58:49.076Z,82.26
2019-04-01T00:59:49.048Z,82.07
2019-04-01T01:00:49.005Z,82.26
2019-04-01T01:01:48.967Z,82.16
2019-04-01T01:02:48.936Z,81.97
2019-04-01T01:03:48.892Z,83.01
2019-04-01T01:04:48.881Z,82.54
2019-04-01T01:05:48.825Z,82.82
2019-04-01T01:06:48.776Z,82.92
2019-04-01T01:07:48.755Z,82.78
2019-04-01T01:08:48.716Z,82.78
2019-04-01T01:09:48.671Z,82.82
2019-04-01T01:10:48.646Z,82.69
2019-04-01T01:11:48.617Z,82.50
2019-04-01T01:12:48.570Z,83.07
2019-04-01T01:13:48.536Z,83.16
2019-04-01T01:14:48.509Z,83.26
2019-04-01T01:15:48.456Z,83.26
2019-04-01T01:16:48.422Z,83.26
2019-04-01T01:17:48.383Z,83.54
2019-04-01T01:18:48.347Z,83.26
2019-04-01T01:19:48.317Z,83.07
2019-04-01T01:20:48.278Z,83.45
2019-04-01T01:21:48.241Z,83.26
2019-04-01T01:22:48.198Z,83.26
2019-04-01T01:23:48.177Z,83.45
2019-04-01T01:24:48.139Z,83.16
2019-04-01T01:25:48.089Z,83.36
2019-04-01T01:26:48.052Z,83.45
2019-04-01T01:27:48.018Z,83.16
2019-04-01T01:28:47.987Z,83.16
2019-04-01T01:29:47.956Z,84.01
2019-04-01T01:30:47.916Z,83.64
2019-04-01T01:31:47.873Z,83.54
2019-04-01T01:32:47.842Z,83.92
2019-04-01T01:33:47.803Z,83.64
2019-04-01T01:34:47.759Z,83.26
2019-04-01T01:35:47.727Z,83.64
2019-04-01T01:36:47.693Z,83.73
2019-04-01T01:37:47.651Z,83.64
2019-04-01T01:38:47.625Z,83.64
2019-04-01T01:39:47.579Z,83.64
2019-04-01T01:40:47.569Z,83.64
2019-04-01T01:41:47.515Z,83.92
2019-04-01T01:42:47.465Z,83.83
2019-04-01T01:43:47.437Z,83.83
2019-04-01T01:44:47.409Z,83.73
2019-04-01T01:45:47.366Z,83.64
2019-04-01T01:46:47.323Z,83.92
2019-04-01T01:47:47.292Z,84.01
2019-04-01T01:48:47.243Z,83.83
2019-04-01T01:49:47.213Z,83.45
2019-04-01T01:50:47.171Z,83.73
2019-04-01T01:51:47.138Z,83.73
2019-04-01T01:52:47.105Z,83.73
2019-04-01T01:53:47.077Z,84.11
2019-04-01T01:54:47.029Z,83.73
2019-04-01T01:55:46.999Z,84.11
2019-04-01T01:56:46.959Z,84.59
2019-04-01T01:57:46.919Z,84.17
2019-04-01T01:58:46.894Z,84.21
2019-04-01T01:59:46.844Z,84.30
2019-04-01T02:00:46.815Z,83.92
2019-04-01T02:01:46.790Z,84.21
2019-04-01T02:02:46.731Z,83.78
2019-04-01T02:03:46.701Z,84.07
2019-04-01T02:04:46.664Z,84.26
2019-04-01T02:05:46.620Z,84.26
2019-04-01T02:06:46.597Z,84.26
2019-04-01T02:07:46.555Z,84.07
2019-04-01T02:08:46.524Z,84.17
2019-04-01T02:09:46.486Z,83.78
2019-04-01T02:10:46.442Z,84.36
2019-04-01T02:11:46.408Z,84.64
2019-04-01T02:12:46.386Z,83.97
2019-04-01T02:13:46.334Z,84.74
2019-04-01T02:14:46.299Z,84.45
2019-04-01T02:15:46.255Z,84.74
2019-04-01T02:16:46.225Z,84.64
2019-04-01T02:17:46.175Z,84.55
2019-04-01T02:18:46.146Z,84.45
2019-04-01T02:19:46.107Z,84.74
2019-04-01T02:20:46.081Z,84.45
2019-04-01T02:21:46.041Z,85.02
2019-04-01T02:22:46.005Z,84.55
2019-04-01T02:23:45.965Z,84.55
2019-04-01T02:24:45.925Z,84.55
2019-04-01T02:25:45.915Z,84.74
2019-04-01T02:26:45.851Z,84.64
2019-04-01T02:27:45.818Z,84.92
2019-04-01T02:28:45.776Z,84.64
2019-04-01T02:29:45.756Z,84.64
2019-04-01T02:30:45.706Z,85.02
2019-04-01T02:31:45.672Z,85.11
2019-04-01T02:32:45.638Z,84.45
2019-04-01T02:33:45.601Z,84.64
2019-04-01T02:34:45.552Z,84.83
2019-04-01T02:35:45.527Z,84.92
2019-04-01T02:36:45.508Z,85.11
2019-04-01T02:37:45.554Z,84.92
2019-04-01T02:38:45.412Z,85.02
2019-04-01T02:39:45.380Z,85.02
2019-04-01T02:40:45.333Z,85.02
2019-04-01T02:41:45.307Z,85.11
2019-04-01T02:42:45.267Z,84.92
2019-04-01T02:43:45.233Z,84.92
2019-04-01T02:44:45.186Z,85.11
2019-04-01T02:45:45.169Z,84.78
2019-04-01T02:46:45.114Z,85.02
2019-04-01T02:47:45.069Z,84.92
2019-04-01T02:48:45.058Z,85.02
2019-04-01T02:49:44.999Z,85.07
2019-04-01T02:50:44.962Z,84.88
2019-04-01T02:51:44.919Z,85.17
2019-04-01T02:52:44.939Z,84.98
2019-04-01T02:53:44.851Z,84.78
2019-04-01T02:54:44.822Z,84.50
2019-04-01T02:55:44.778Z,85.07
2019-04-01T02:56:44.739Z,84.69
2019-04-01T02:57:44.709Z,84.78
2019-04-01T02:58:44.665Z,84.69
2019-04-01T02:59:44.636Z,84.98
2019-04-01T03:00:44.587Z,85.07
2019-04-01T03:01:44.566Z,84.78
2019-04-01T03:02:44.514Z,84.88
2019-04-01T03:03:44.475Z,84.50
2019-04-01T03:04:44.439Z,85.07
2019-04-01T03:05:44.426Z,84.50
2019-04-01T03:06:44.364Z,84.41
2019-04-01T03:07:44.332Z,84.78
2019-04-01T03:08:44.300Z,85.07
2019-04-01T03:09:44.262Z,84.78
2019-04-01T03:10:44.214Z,84.98
2019-04-01T03:11:44.183Z,84.59
2019-04-01T03:12:44.149Z,84.88
2019-04-01T03:13:44.101Z,85.07
2019-04-01T03:14:44.074Z,84.78
2019-04-01T03:15:44.035Z,84.88
2019-04-01T03:16:43.998Z,84.98
2019-04-01T03:17:43.975Z,84.78
2019-04-01T03:18:43.919Z,84.78
2019-04-01T03:19:43.882Z,85.17
2019-04-01T03:20:43.848Z,84.88
2019-04-01T03:21:43.811Z,84.69
2019-04-01T03:22:43.769Z,84.59
2019-04-01T03:23:43.745Z,84.88
2019-04-01T03:24:43.711Z,84.88
2019-04-01T03:25:43.695Z,84.98
2019-04-01T03:26:43.615Z,84.59
2019-04-01T03:27:43.584Z,84.69
2019-04-01T03:28:43.543Z,84.59
2019-04-01T03:29:43.509Z,84.69
2019-04-01T03:30:43.479Z,84.69
2019-04-01T03:31:43.434Z,84.69
2019-04-01T03:32:45.278Z,84.31
2019-04-01T03:33:43.380Z,84.50
2019-04-01T03:34:43.321Z,84.88
2019-04-01T03:35:43.295Z,84.78
2019-04-01T03:36:43.253Z,84.78
2019-04-01T03:37:43.218Z,84.41
2019-04-01T03:38:43.166Z,84.22
2019-04-01T03:39:43.133Z,84.50
2019-04-01T03:40:43.090Z,84.59
2019-04-01T03:41:43.057Z,84.88
2019-04-01T03:42:43.021Z,84.59
2019-04-01T03:43:42.987Z,84.59
2019-04-01T03:44:42.946Z,84.78
2019-04-01T03:45:42.925Z,83.94
2019-04-01T03:46:42.875Z,84.78
2019-04-01T03:47:42.842Z,84.17
2019-04-01T03:48:42.800Z,84.22
2019-04-01T03:49:42.757Z,84.41
2019-04-01T03:50:42.728Z,84.78
2019-04-01T03:51:42.682Z,84.22
2019-04-01T03:52:42.646Z,84.59
2019-04-01T03:53:42.611Z,84.17
2019-04-01T03:54:42.573Z,84.46
2019-04-01T03:55:42.550Z,84.55
2019-04-01T03:56:42.535Z,84.36
2019-04-01T03:57:42.464Z,84.65
2019-04-01T03:58:42.507Z,84.65
2019-04-01T03:59:42.407Z,83.89
2019-04-01T04:00:42.386Z,84.27
2019-04-01T04:01:42.311Z,83.98
2019-04-01T04:02:42.274Z,83.98
2019-04-01T04:03:42.287Z,83.98
2019-04-01T04:04:42.199Z,84.08
2019-04-01T04:05:42.168Z,83.98
2019-04-01T04:06:42.160Z,83.89
2019-04-01T04:07:42.102Z,83.94
2019-04-01T04:08:42.054Z,84.08
2019-04-01T04:09:42.004Z,84.08
2019-04-01T04:10:41.991Z,83.51
2019-04-01T04:11:41.966Z,83.80
2019-04-01T04:12:41.892Z,84.08
2019-04-01T04:13:41.914Z,83.51
2019-04-01T04:14:41.826Z,83.32
2019-04-01T04:15:41.808Z,83.42
2019-04-01T04:16:41.811Z,83.70
2019-04-01T04:17:41.709Z,83.51
2019-04-01T04:18:41.676Z,83.61
2019-04-01T04:19:41.673Z,83.32
2019-04-01T04:20:41.628Z,83.32
2019-04-01T04:21:41.590Z,83.80
2019-04-01T04:22:41.537Z,83.23
2019-04-01T04:23:41.529Z,83.51
2019-04-01T04:24:41.458Z,83.51
2019-04-01T04:25:41.428Z,83.70
2019-04-01T04:26:41.394Z,83.32
2019-04-01T04:27:41.341Z,83.61
2019-04-01T04:28:41.326Z,83.42
2019-04-01T04:29:41.295Z,83.51
2019-04-01T04:30:41.220Z,83.70
2019-04-01T04:31:41.204Z,83.70
2019-04-01T04:32:41.183Z,83.61
2019-04-01T04:33:41.127Z,83.70
2019-04-01T04:34:41.099Z,83.42
2019-04-01T04:35:41.034Z,83.61
2019-04-01T04:36:41.020Z,83.80
2019-04-01T04:37:40.990Z,83.61
2019-04-01T04:38:40.961Z,83.32
2019-04-01T04:39:40.909Z,83.61
2019-04-01T04:40:41.286Z,83.32
2019-04-01T04:41:40.799Z,83.42
2019-04-01T04:42:40.807Z,83.61
2019-04-01T04:43:40.724Z,83.70
2019-04-01T04:44:40.714Z,83.70
2019-04-01T04:45:40.674Z,83.70
2019-04-01T04:46:40.624Z,83.80
2019-04-01T04:47:40.595Z,83.80
2019-04-01T04:48:40.574Z,83.84
2019-04-01T04:49:40.519Z,83.94
2019-04-01T04:50:40.493Z,83.70
2019-04-01T04:51:40.506Z,83.65
2019-04-01T04:52:40.447Z,83.46
2019-04-01T04:53:40.354Z,83.46
2019-04-01T04:54:40.342Z,83.46
2019-04-01T04:55:40.315Z,83.65
2019-04-01T04:56:40.273Z,83.46
2019-04-01T04:57:40.203Z,83.46
2019-04-01T04:58:40.174Z,82.79
2019-04-01T04:59:40.169Z,83.17
2019-04-01T05:00:40.094Z,82.79
2019-04-01T05:01:40.090Z,83.17
2019-04-01T05:02:40.057Z,83.27
2019-04-01T05:03:39.998Z,82.98
2019-04-01T05:04:39.976Z,82.89
2019-04-01T05:05:39.916Z,82.89
2019-04-01T05:06:39.895Z,83.08
2019-04-01T05:07:39.828Z,83.08
2019-04-01T05:08:39.841Z,83.08
2019-04-01T05:09:39.789Z,82.98
2019-04-01T05:10:39.728Z,82.98
2019-04-01T05:11:39.680Z,83.46
2019-04-01T05:12:39.681Z,83.46
2019-04-01T05:13:39.604Z,83.61
2019-04-01T05:14:39.576Z,83.32
2019-04-01T05:15:39.530Z,83.55
2019-04-01T05:16:39.494Z,83.51
2019-04-01T05:17:39.523Z,83.61
2019-04-01T05:18:39.427Z,83.80
2019-04-01T05:19:39.400Z,83.80
2019-04-01T05:20:39.342Z,83.61
2019-04-01T05:21:39.306Z,83.42
2019-04-01T05:22:39.281Z,83.32
2019-04-01T05:23:39.241Z,83.61
2019-04-01T05:24:39.197Z,83.61
2019-04-01T05:25:39.162Z,83.70
2019-04-01T05:26:39.112Z,83.70
2019-04-01T05:27:39.125Z,83.70
2019-04-01T05:28:39.050Z,83.70
2019-04-01T05:29:39.005Z,83.61
2019-04-01T05:30:38.982Z,83.80
2019-04-01T05:31:38.953Z,83.61
2019-04-01T05:32:38.887Z,83.70
2019-04-01T05:33:38.853Z,83.61
2019-04-01T05:34:38.817Z,83.51
2019-04-01T05:35:38.771Z,83.80
2019-04-01T05:36:38.741Z,83.70
2019-04-01T05:37:38.717Z,83.89
2019-04-01T05:38:38.668Z,83.80
2019-04-01T05:39:38.633Z,83.51
2019-04-01T05:40:38.608Z,83.80
2019-04-01T05:41:38.558Z,83.61
2019-04-01T05:42:38.517Z,83.61
2019-04-01T05:43:38.475Z,83.80
2019-04-01T05:44:38.441Z,83.98
2019-04-01T05:45:38.401Z,83.42
2019-04-01T05:46:38.363Z,83.32
2019-04-01T05:47:38.330Z,83.13
2019-04-01T05:48:38.329Z,83.61
2019-04-01T05:49:38.260Z,83.51
2019-04-01T05:50:38.229Z,83.32
2019-04-01T05:51:38.211Z,83.61
2019-04-01T05:52:38.148Z,83.61
2019-04-01T05:53:38.132Z,83.70
2019-04-01T05:54:38.073Z,83.42
2019-04-01T05:55:38.032Z,83.42
2019-04-01T05:56:38.012Z,83.61
2019-04-01T05:57:37.949Z,82.75
2019-04-01T05:58:37.924Z,83.61
2019-04-01T05:59:37.874Z,83.17
2019-04-01T06:00:37.836Z,82.94
2019-04-01T06:01:37.825Z,83.04
2019-04-01T06:02:37.778Z,83.61
2019-04-01T06:03:37.762Z,83.32
2019-04-01T06:04:37.692Z,82.89
2019-04-01T06:05:37.650Z,83.08
2019-04-01T06:06:37.660Z,83.32
2019-04-01T06:07:37.581Z,82.98
2019-04-01T06:08:37.545Z,83.27
2019-04-01T06:09:37.513Z,82.94
2019-04-01T06:10:37.470Z,83.84
2019-04-01T06:11:37.424Z,83.46
2019-04-01T06:12:37.410Z,83.08
2019-04-01T06:13:37.368Z,83.46
2019-04-01T06:14:37.317Z,83.36
2019-04-01T06:15:37.308Z,83.08
2019-04-01T06:16:37.241Z,82.98
2019-04-01T06:17:37.257Z,83.08
2019-04-01T06:18:37.184Z,82.89
2019-04-01T06:19:37.133Z,83.08
2019-04-01T06:20:37.089Z,83.08
2019-04-01T06:21:37.049Z,82.98
2019-04-01T06:22:37.035Z,83.17
2019-04-01T06:23:37.005Z,83.27
2019-04-01T06:24:36.946Z,83.27
2019-04-01T06:25:36.936Z,83.17
2019-04-01T06:26:36.879Z,82.98
2019-04-01T06:27:36.825Z,83.65
2019-04-01T06:28:36.790Z,83.08
2019-04-01T06:29:36.770Z,83.08
2019-04-01T06:30:36.725Z,82.98
2019-04-01T06:31:36.670Z,82.32
2019-04-01T06:32:36.639Z,82.42
2019-04-01T06:33:36.620Z,83.17
2019-04-01T06:34:36.565Z,82.98
2019-04-01T06:35:36.545Z,82.98
2019-04-01T06:36:38.849Z,83.08
2019-04-01T06:37:36.494Z,83.17
2019-04-01T06:38:36.424Z,83.27
2019-04-01T06:39:36.405Z,83.31
2019-04-01T06:40:36.339Z,82.74
2019-04-01T06:41:36.309Z,83.17
2019-04-01T06:42:36.278Z,83.27
2019-04-01T06:43:36.232Z,83.40
2019-04-01T06:44:36.189Z,82.55
2019-04-01T06:45:36.161Z,82.74
2019-04-01T06:46:36.119Z,82.36
2019-04-01T06:47:36.104Z,83.12
2019-04-01T06:48:36.045Z,82.84
2019-04-01T06:49:36.013Z,82.74
2019-04-01T06:50:35.970Z,82.74
2019-04-01T06:51:35.942Z,82.55
2019-04-01T06:52:35.895Z,82.84
2019-04-01T06:53:35.857Z,83.22
2019-04-01T06:54:35.815Z,82.93
2019-04-01T06:55:35.783Z,82.55
2019-04-01T06:56:35.747Z,82.84
2019-04-01T06:57:35.710Z,82.36
2019-04-01T06:58:35.675Z,82.84
2019-04-01T06:59:35.640Z,82.84
2019-04-01T07:00:35.597Z,82.65
2019-04-01T07:01:35.646Z,82.84
2019-04-01T07:02:35.517Z,82.84
2019-04-01T07:03:35.490Z,82.74
2019-04-01T07:04:35.449Z,82.93
2019-04-01T07:05:35.408Z,82.65
2019-04-01T07:06:35.380Z,82.84
2019-04-01T07:07:35.326Z,82.84
2019-04-01T07:08:35.313Z,82.55
2019-04-01T07:09:35.267Z,83.16
2019-04-01T07:10:35.227Z,82.65
2019-04-01T07:11:35.323Z,82.46
2019-04-01T07:12:35.152Z,82.78
2019-04-01T07:13:35.112Z,82.69
2019-04-01T07:14:35.081Z,82.40
2019-04-01T07:15:35.047Z,82.88
2019-04-01T07:16:35.011Z,82.59
2019-04-01T07:17:34.971Z,81.93
2019-04-01T07:18:34.928Z,82.78
2019-04-01T07:19:34.882Z,82.12
2019-04-01T07:20:34.853Z,82.50
2019-04-01T07:21:34.821Z,82.03
2019-04-01T07:22:34.787Z,82.03
2019-04-01T07:23:34.747Z,82.50
2019-04-01T07:24:34.701Z,82.21
2019-04-01T07:25:34.672Z,82.88
2019-04-01T07:26:34.649Z,82.88
2019-04-01T07:27:34.603Z,82.12
2019-04-01T07:28:34.564Z,82.03
2019-04-01T07:29:34.527Z,82.69
2019-04-01T07:30:34.493Z,81.74
2019-04-01T07:31:34.463Z,81.87
2019-04-01T07:32:34.418Z,81.93
2019-04-01T07:33:34.379Z,82.16
2019-04-01T07:34:34.342Z,81.68
2019-04-01T07:35:34.308Z,82.73
2019-04-01T07:36:34.274Z,82.07
2019-04-01T07:37:34.230Z,82.07
2019-04-01T07:38:34.203Z,81.78
2019-04-01T07:39:34.163Z,81.97
2019-04-01T07:40:34.134Z,81.59
2019-04-01T07:41:34.090Z,81.30
2019-04-01T07:42:34.050Z,82.16
2019-04-01T07:43:34.014Z,81.30
2019-04-01T07:44:33.984Z,81.40
2019-04-01T07:45:33.950Z,82.10
2019-04-01T07:46:33.903Z,81.16
2019-04-01T07:47:33.878Z,82.77
2019-04-01T07:48:33.835Z,81.54
2019-04-01T07:49:33.805Z,81.63
2019-04-01T07:50:33.758Z,81.54
2019-04-01T07:51:33.878Z,81.73
2019-04-01T07:52:33.697Z,81.35
2019-04-01T07:53:33.656Z,81.35
2019-04-01T07:54:33.615Z,81.35
2019-04-01T07:55:33.588Z,81.73
2019-04-01T07:56:33.543Z,81.54
2019-04-01T07:57:33.506Z,81.44
2019-04-01T07:58:33.471Z,81.35
2019-04-01T07:59:33.435Z,81.73
2019-04-01T08:00:33.393Z,81.63
2019-04-01T08:01:33.374Z,81.58
2019-04-01T08:02:33.329Z,82.15
2019-04-01T08:03:33.290Z,81.67
2019-04-01T08:04:33.254Z,81.38
2019-04-01T08:05:33.224Z,80.87
2019-04-01T08:06:33.191Z,81.29
2019-04-01T08:07:33.151Z,81.54
2019-04-01T08:08:33.105Z,81.01
2019-04-01T08:09:33.070Z,81.48
2019-04-01T08:10:33.039Z,81.20
2019-04-01T08:11:33.007Z,81.48
2019-04-01T08:12:32.970Z,81.58
2019-04-01T08:13:32.931Z,81.38
2019-04-01T08:14:32.901Z,81.58
2019-04-01T08:15:32.867Z,81.58
2019-04-01T08:16:32.826Z,81.38
2019-04-01T08:17:32.795Z,80.82
2019-04-01T08:18:34.101Z,81.67
2019-04-01T08:19:32.722Z,81.01
2019-04-01T08:20:32.682Z,81.24
2019-04-01T08:21:32.646Z,80.72
2019-04-01T08:22:32.610Z,80.44
2019-04-01T08:23:32.579Z,80.66
2019-04-01T08:24:32.552Z,81.05
2019-04-01T08:25:32.510Z,80.76
2019-04-01T08:26:32.476Z,80.86
2019-04-01T08:27:32.445Z,80.66
2019-04-01T08:28:32.397Z,80.86
2019-04-01T08:29:32.368Z,80.66
2019-04-01T08:30:32.342Z,80.95
2019-04-01T08:31:32.297Z,80.57
2019-04-01T08:32:32.277Z,81.90
2019-04-01T08:33:32.219Z,80.86
2019-04-01T08:34:32.188Z,80.57
2019-04-01T08:35:32.147Z,79.91
2019-04-01T08:36:32.121Z,80.42
2019-04-01T08:37:32.082Z,81.09
2019-04-01T08:38:32.046Z,80.61
2019-04-01T08:39:32.012Z,80.52
2019-04-01T08:40:31.976Z,80.61
2019-04-01T08:41:31.942Z,80.61
2019-04-01T08:42:31.911Z,80.99
2019-04-01T08:43:31.875Z,80.71
2019-04-01T08:44:31.836Z,81.47
2019-04-01T08:45:31.802Z,80.71
2019-04-01T08:46:31.767Z,79.75
2019-04-01T08:47:31.733Z,79.80
2019-04-01T08:48:35.319Z,79.51
2019-04-01T08:49:31.660Z,78.94
2019-04-01T08:50:31.627Z,79.89
2019-04-01T08:51:31.596Z,77.42
2019-04-01T08:52:31.562Z,77.89
2019-04-01T08:53:31.518Z,78.75
2019-04-01T08:54:31.507Z,78.37
2019-04-01T08:55:31.452Z,75.70
2019-04-01T08:56:31.424Z,75.99
2019-04-01T08:57:31.383Z,76.27
2019-04-01T08:58:31.349Z,77.13
2019-04-01T08:59:31.312Z,77.80
2019-04-01T09:00:31.289Z,78.37
2019-04-01T09:01:35.437Z,76.94
2019-04-01T09:02:31.208Z,75.51
2019-04-01T09:03:31.179Z,75.51
2019-04-01T09:04:31.156Z,76.18
2019-04-01T09:05:31.109Z,77.03
2019-04-01T09:06:31.428Z,77.45
2019-04-01T09:07:31.043Z,77.07
2019-04-01T09:08:31.010Z,77.26
2019-04-01T09:09:30.964Z,74.69
2019-04-01T09:10:30.944Z,74.40
2019-04-01T09:11:30.905Z,73.26
2019-04-01T09:12:30.868Z,75.55
2019-04-01T09:13:30.834Z,75.74
2019-04-01T09:14:30.808Z,76.50
2019-04-01T09:15:30.764Z,76.50
2019-04-01T09:16:30.743Z,75.84
2019-04-01T09:17:30.700Z,75.45
2019-04-01T09:18:30.671Z,75.01
2019-04-01T09:19:30.623Z,74.92
2019-04-01T09:20:30.595Z,73.39
2019-04-01T09:21:30.561Z,75.11
2019-04-01T09:22:30.525Z,72.34
2019-04-01T09:23:30.494Z,74.35
2019-04-01T09:24:30.469Z,75.30
2019-04-01T09:25:30.426Z,74.44
2019-04-01T09:26:30.391Z,74.25
2019-04-01T09:27:30.365Z,73.39
2019-04-01T09:28:30.317Z,73.49
2019-04-01T09:29:30.289Z,74.92
2019-04-01T09:30:30.254Z,73.01
2019-04-01T09:31:30.238Z,74.16
2019-04-01T09:32:30.192Z,72.72
2019-04-01T09:33:30.151Z,72.96
2019-04-01T09:34:30.124Z,68.63
2019-04-01T09:35:30.095Z,68.05
2019-04-01T09:36:30.050Z,69.10
2019-04-01T09:37:30.030Z,70.06
2019-04-01T09:38:29.991Z,69.54
2019-04-01T09:39:29.957Z,70.06
2019-04-01T09:40:29.921Z,72.63
2019-04-01T09:41:29.885Z,73.01
2019-04-01T09:42:29.850Z,73.77
2019-04-01T09:43:29.815Z,74.67
2019-04-01T09:44:36.624Z,72.38
2019-04-01T09:45:29.750Z,72.67
2019-04-01T09:46:29.730Z,68.85
2019-04-01T09:47:29.686Z,70.57
2019-04-01T09:48:29.657Z,70.57
2019-04-01T09:49:29.617Z,72.19
2019-04-01T09:50:29.591Z,68.76
2019-04-01T09:51:29.550Z,67.99
2019-04-01T09:52:29.512Z,67.80
2019-04-01T09:53:29.488Z,71.27
2019-04-01T09:54:29.450Z,73.08
2019-04-01T09:55:29.420Z,68.79
2019-04-01T09:56:29.383Z,66.88
2019-04-01T09:57:29.458Z,66.69
2019-04-01T09:58:29.322Z,71.37
2019-04-01T09:59:29.287Z,67.87
2019-04-01T10:00:29.259Z,67.24
2019-04-01T10:01:29.226Z,66.03
2019-04-01T10:02:32.185Z,62.87
2019-04-01T10:03:29.162Z,60.99
2019-04-01T10:04:29.132Z,59.37
2019-04-01T10:05:29.092Z,60.90
2019-04-01T10:06:29.072Z,59.78
2019-04-01T10:07:29.155Z,58.92
2019-04-01T10:08:41.395Z,57.07
2019-04-01T10:09:28.971Z,58.32
2019-04-01T10:10:28.937Z,57.93
2019-04-01T10:11:28.913Z,58.06
2019-04-01T10:12:28.876Z,56.65
2019-04-01T10:13:28.852Z,55.12
2019-04-01T10:14:28.816Z,55.74
2019-04-01T10:15:28.776Z,57.29
2019-04-01T10:16:28.758Z,57.16
2019-04-01T10:17:28.722Z,54.55
2019-04-01T10:18:28.694Z,54.45
2019-04-01T10:19:28.668Z,54.90
2019-04-01T10:20:28.637Z,56.17
2019-04-01T10:21:28.603Z,57.54
2019-04-01T10:22:28.579Z,56.81
2019-04-01T10:23:28.543Z,55.21
2019-04-01T10:24:28.521Z,52.93
2019-04-01T10:25:28.478Z,52.86
2019-04-01T10:26:28.454Z,52.28
2019-04-01T10:27:28.424Z,51.64
2019-04-01T10:28:31.905Z,49.60
2019-04-01T10:29:28.364Z,48.90
2019-04-01T10:30:28.340Z,49.86
2019-04-01T10:31:28.312Z,49.88
2019-04-01T10:32:28.281Z,49.62
2019-04-01T10:33:28.258Z,49.33
2019-04-01T10:34:28.223Z,49.36
2019-04-01T10:35:28.198Z,49.26
2019-04-01T10:36:28.174Z,48.23
2019-04-01T10:37:28.128Z,48.52
2019-04-01T10:38:28.114Z,48.23
2019-04-01T10:39:28.086Z,47.10
2019-04-01T10:40:28.059Z,46.07
2019-04-01T10:41:28.027Z,45.88
2019-04-01T10:42:27.997Z,47.61
2019-04-01T10:43:27.972Z,49.17
2019-04-01T10:44:27.954Z,49.19
2019-04-01T10:45:27.993Z,47.39
2019-04-01T10:46:27.878Z,45.92
2019-04-01T10:47:27.858Z,45.61
2019-04-01T10:48:27.834Z,45.78
2019-04-01T10:49:27.809Z,46.45
2019-04-01T10:50:27.804Z,46.84
2019-04-01T10:51:27.752Z,48.02
2019-04-01T10:52:27.726Z,49.29
2019-04-01T10:53:27.733Z,47.77
2019-04-01T10:54:27.681Z,46.33
2019-04-01T10:55:27.639Z,44.99
2019-04-01T10:56:27.644Z,46.53
2019-04-01T10:57:27.577Z,47.03
2019-04-01T10:58:27.574Z,46.26
2019-04-01T10:59:27.537Z,45.78
2019-04-01T11:00:27.604Z,44.53
2019-04-01T11:01:27.462Z,43.93
2019-04-01T11:02:27.439Z,45.18
2019-04-01T11:03:27.498Z,47.53
2019-04-01T11:04:27.449Z,48.78
2019-04-01T11:05:27.398Z,49.38
2019-04-01T11:06:27.356Z,49.50
2019-04-01T11:07:27.317Z,48.33
2019-04-01T11:08:27.288Z,48.07
2019-04-01T11:09:38.331Z,49.43
2019-04-01T11:10:27.207Z,48.88
2019-04-01T11:11:27.564Z,49.17
2019-04-01T11:12:27.157Z,49.00
2019-04-01T11:13:27.137Z,47.68
2019-04-01T11:14:27.095Z,47.39
2019-04-01T11:15:27.079Z,46.55
2019-04-01T11:16:27.052Z,46.45
2019-04-01T11:17:27.025Z,45.78
2019-04-01T11:18:26.992Z,45.80
2019-04-01T11:19:26.971Z,44.55
2019-04-01T11:20:26.935Z,43.37
2019-04-01T11:21:26.906Z,43.76
2019-04-01T11:22:26.885Z,43.57
2019-04-01T11:23:26.852Z,44.29
2019-04-01T11:24:26.842Z,45.47
2019-04-01T11:25:26.793Z,46.04
2019-04-01T11:26:26.772Z,45.15
2019-04-01T11:27:26.752Z,45.76
2019-04-01T11:28:26.712Z,47.75
2019-04-01T11:29:26.725Z,48.88
2019-04-01T11:30:26.667Z,49.84
2019-04-01T11:31:26.668Z,50.15
2019-04-01T11:32:26.633Z,50.75
2019-04-01T11:33:26.590Z,49.43
2019-04-01T11:34:26.685Z,47.92
2019-04-01T11:35:26.526Z,48.52
2019-04-01T11:36:26.522Z,47.66
2019-04-01T11:37:26.518Z,46.33
2019-04-01T11:38:26.489Z,46.45
2019-04-01T11:39:26.454Z,46.06
2019-04-01T11:40:26.417Z,45.22
2019-04-01T11:41:26.376Z,44.07
2019-04-01T11:42:26.366Z,44.07
2019-04-01T11:43:26.355Z,43.43
2019-04-01T11:44:26.295Z,45.25
2019-04-01T11:45:26.294Z,45.25
2019-04-01T11:46:26.233Z,46.04
2019-04-01T11:47:26.244Z,45.78
2019-04-01T11:48:26.198Z,44.62
2019-04-01T11:49:26.164Z,44.93
2019-04-01T11:50:26.203Z,44.74
2019-04-01T11:51:32.949Z,43.59
2019-04-01T11:52:26.174Z,43.51
2019-04-01T11:53:26.034Z,44.76
2019-04-01T11:54:26.017Z,44.11
2019-04-01T11:55:25.990Z,42.86
2019-04-01T11:56:26.691Z,41.74
2019-04-01T11:57:25.936Z,43.37
2019-04-01T11:58:25.898Z,44.62
2019-04-01T11:59:25.872Z,44.65
2019-04-01T12:00:26.386Z,44.74
2019-04-01T12:01:25.833Z,44.17
2019-04-01T12:02:25.800Z,43.76
2019-04-01T12:03:25.770Z,45.61
2019-04-01T12:04:25.749Z,46.31
2019-04-01T12:05:25.739Z,44.76
2019-04-01T12:06:25.690Z,42.72
2019-04-01T12:07:25.663Z,42.87
2019-04-01T12:08:25.642Z,44.96
2019-04-01T12:09:25.618Z,45.35
2019-04-01T12:10:25.604Z,46.14
2019-04-01T12:11:25.550Z,44.79
2019-04-01T12:12:25.542Z,43.84
2019-04-01T12:13:25.509Z,45.47
2019-04-01T12:14:25.483Z,45.87
2019-04-01T12:15:25.461Z,44.45
2019-04-01T12:16:25.445Z,43.01
2019-04-01T12:17:25.413Z,43.41
2019-04-01T12:18:25.375Z,43.99
2019-04-01T12:19:25.346Z,44.21
2019-04-01T12:20:25.318Z,42.09
2019-04-01T12:21:25.308Z,41.11
2019-04-01T12:22:25.275Z,42.24
2019-04-01T12:23:25.253Z,44.09
2019-04-01T12:24:25.221Z,43.05
2019-04-01T12:25:25.194Z,42.96
2019-04-01T12:26:25.177Z,42.88
2019-04-01T12:27:25.148Z,42.88
2019-04-01T12:28:25.128Z,41.44
2019-04-01T12:29:25.096Z,41.24
2019-04-01T12:30:25.064Z,41.14
2019-04-01T12:31:25.040Z,41.75
2019-04-01T12:32:25.020Z,40.28
2019-04-01T12:33:26.268Z,40.28
2019-04-01T12:34:24.966Z,40.41
2019-04-01T12:35:24.934Z,42.49
2019-04-01T12:36:24.909Z,43.54
2019-04-01T12:37:24.885Z,45.95
2019-04-01T12:38:24.861Z,43.26
2019-04-01T12:39:24.847Z,44.14
2019-04-01T12:40:24.820Z,42.80
2019-04-01T12:41:24.781Z,42.77
2019-04-01T12:42:25.319Z,43.68
2019-04-01T12:43:24.765Z,43.90
2019-04-01T12:44:24.700Z,42.26
2019-04-01T12:45:24.680Z,43.54
2019-04-01T12:46:24.661Z,44.02
2019-04-01T12:47:24.632Z,41.71
2019-04-01T12:48:25.607Z,40.74
2019-04-01T12:49:24.580Z,40.41
2019-04-01T12:50:24.551Z,41.39
2019-04-01T12:51:24.526Z,41.45
2019-04-01T12:52:24.502Z,43.07